AirNav   TITAN Aviation Fuels
 
 1313 users online  

4J2 Berrien County Airport
Nashville, Georgia, USA

GOING TO NASHVILLE?


FAA INFORMATION EFFECTIVE 16 JUNE 2022

Location

FAA Identifier: 4J2
Lat/Long: 31-12-45.1605N 083-13-30.9236W
31-12.752675N 083-13.515393W
31.2125446,-83.2252566
(estimated)
Elevation: 240.1 ft. / 73.2 m (surveyed)
Variation: 03W (1995)
From city: 1 mile E of NASHVILLE, GA
Time zone: UTC -4 (UTC -5 during Standard Time)
Zip code: 31639

Airport Operations

Airport use: Open to the public
Control tower: no
ARTCC: JACKSONVILLE CENTER
FSS: MACON FLIGHT SERVICE STATION
NOTAMs facility: MCN (NOTAM-D service available)
Attendance: UNATTENDED
Wind indicator: lighted
Segmented circle: yes
Lights: MIRL 10/28 PRESET LOW INTST DUSK-DAWN; TO INCREASE INTST AND ACTVT REIL RWY 10 & 28; PAPI RWY 10 & 28 - CTAF
Beacon: white-green (lighted land airport)
Operates sunset to sunrise.

Airport Communications

CTAF/UNICOM: 122.7
VALDOSTA APPROACH: 126.6 ;EAST OF VAD 360-VAD 180 132.375 ;WEST OF VAD R-360 RADIAL
VALDOSTA DEPARTURE: 126.6 ;EAST OF VAD 360-VAD 180 132.375 ;WEST OF VAD R-360 RADIAL
IC: 126.6 ;EAST OF VAD 360-VAD 180
WX AWOS-3PT at TMA (19 nm NW): 118.525 (229-386-8937)
  • APCH/DEP SVC PRVDD BY JACKSONVILLE ARTCC ON FREQS 133.7/323.3(VALDOSTA RCAG) WHEN VALDOSTA APCH CTL CLSD.

Nearby radio navigation aids

VOR radial/distance  VOR name  Freq  Var
IFMr135/(18.7)TIFT MYERS VOR112.5001W
OTKr008/26.1VALDOSTA VOR/DME114.8002W
AYSr264/34.5WAYCROSS VORTAC110.2000E

 
NDB name  Hdg/Dist  Freq  Var  ID
COFFEE COUNTY239/19.339006WOWC --- .-- -.-.
FITZGERALD177/24.336205WSUR ... ..- .-.
HOMERVILLE298/25.120906WHOE .... --- .
PATON069/34.524505WGTP --. - .--.

Airport Services

Fuel available: A
Parking: tiedowns
Airframe service: NONE
Powerplant service: NONE
Bottled oxygen: NONE
Bulk oxygen: NONE

Runway Information

Runway 10/28

Dimensions: 5002 x 75 ft. / 1525 x 23 m
Surface: asphalt, in good condition
Weight bearing capacity: 
Single wheel: 23.0
Runway edge lights: medium intensity
RUNWAY 10  RUNWAY 28
Latitude: 31-12.775823N31-12.729527N
Longitude: 083-13.994645W083-13.036140W
Elevation: 238.2 ft.232.9 ft.
Traffic pattern: leftleft
Runway heading: 096 magnetic, 093 true276 magnetic, 273 true
Markings: nonprecision, in fair conditionnonprecision, in fair condition
Visual slope indicator: 2-light PAPI on left (3.60 degrees glide path)2-light PAPI on left (4.00 degrees glide path)
Runway end identifier lights: yesyes
Touchdown point: yes, no lightsyes, no lights
Obstructions: 39 ft. trees, 1526 ft. from runway, 300 ft. left of centerline, 34:1 slope to clear21 ft. trees, 242 ft. from runway, 160 ft. right of centerline, 2:1 slope to clear

Airport Ownership and Management from official FAA records

Ownership: Publicly-owned
Owner: BERRIEN COUNTY
201 N DAVIS ST, ROOM 198
NASHVILLE, GA 31639
Phone 229-686-5421
Manager: LISA SMART
P.O. BOX 217, ROOM 198
NASHVILLE, GA 31639
Phone 229-686-5123

Airport Operational Statistics

Aircraft based on the field: 8
Single engine airplanes: 7
Jet airplanes: 1
    
Aircraft operations: avg 77/week *
75% local general aviation
25% transient general aviation
* for 12-month period ending 31 December 2021

Additional Remarks

FOR CD CTC JACKSONVILLE ARTCC AT 904-845-1592.

Instrument Procedures

NOTE: All procedures below are presented as PDF files. If you need a reader for these files, you should download the free Adobe Reader.

NOT FOR NAVIGATION. Please procure official charts for flight.
FAA instrument procedures published for use from 16 June 2022 at 0901Z to 14 July 2022 at 0900z.

 
IAPs - Instrument Approach Procedures
RNAV (GPS) RWY 10   download (213KB)
RNAV (GPS) RWY 28   download (228KB)
NOTE: Special Take-Off Minimums/Departure Procedures apply   download (302KB)

Other nearby airports with instrument procedures:

15J - Cook County Airport (13 nm W)
KVAD - Moody Air Force Base (15 nm S)
KTMA - Henry Tift Myers Airport (19 nm NW)
KDQH - Douglas Municipal Airport (25 nm NE)
KHOE - Homerville Airport (25 nm E)
 
Loc | Ops | Rwys | IFR | FBO | Links
Com | Nav | Svcs | Stats | Notes
Area around 4J2 (Berrien County Airport)
 
Road maps at: MapQuest Bing Google
 
Aerial photo
WARNING: Photo may not be current or correct
Aerial photo of 4J2 (Berrien County Airport)
Photo courtesy of AirNav, LLC
Photo taken 01-Apr-2011
looking east.

Do you have a better or more recent aerial photo of Berrien County Airport that you would like to share? If so, please send us your photo.

 
Sectional chart

 
Airport distance calculator
Flying to Berrien County Airport? Find the distance to fly.

From to 4J2

Sunrise and sunset
Times for 06-Jul-2022
 Local
(UTC-4)
 Zulu
(UTC)
Morning civil twilight06:0810:08
Sunrise06:3610:36
Sunset20:4000:40
Evening civil twilight21:0701:07

Current date and time
Zulu (UTC)  06-Jul-2022 14:05:28
Local (UTC-4)  06-Jul-2022 10:05:28
 
METAR
KVAD 
15nm S 
061356Z AUTO 26003KT 10SM CLR 30/25 A3006 RMK AO2 SLP179 T02990247 $
KTMA 
19nm NW 
061355Z AUTO 29004KT 10SM 29/25 A3007 RMK AO2 T02910245
KDQH 
25nm NE 
061355Z AUTO 00000KT 10SM CLR 28/25 A3008 RMK AO2 T02830247
KHOE 
25nm E 
061355Z AUTO 00000KT 10SM CLR 29/23 A3008 RMK AO2 T02960236
KVLD 
27nm S 
061353Z VRB03KT 10SM CLR 31/24 A3007 RMK AO2 SLP187 T03060239
KFZG 
28nm N 
061355Z AUTO 27003KT 10SM SCT080 29/25 A3007 RMK AO2 T02920250
TAF
KVAD 
15nm S 
060800Z 0608/0714 21006KT 9999 SKC QNH3002INS BECMG 0615/0616 21009KT 9999 SCT030 QNH2993INS TEMPO 0622/0702 21015G25KT 4800 -TSRA BKN040CB BECMG 0707/0708 21006KT 9999 SCT010 QNH2998INS TX34/0620Z TN23/0610Z
NOTAMs
Click for the latest NOTAMs
NOTAMs are issued by the DoD/FAA and will open in a separate window not controlled by AirNav.

 

 
 

FBO, Fuel Providers, and Aircraft Ground Support

  
 Business Name 
 
 Contact 
 
 Services / Description 
 
Fuel Prices
 
Comments
  
Berrien County Airport 229-686-5421
no information available

If you are affiliated with Berrien County Airport and would like to show here your services, contact info, web link, logo, and more, click here
Jet A
SS $5.30 
 Updated 22-Jun-2022
 
   write
SS=Self service
Update Fuel Prices
 

Would you like to see your business listed on this page?

 If your business provides an interesting product or service to pilots, flight crews, aircraft, or users of the Berrien County Airport, you should consider listing it here.  To start the listing process, click on the button below
 
Add a business
 

Other Pages about Berrien County Airport

Update a link
 
Copyright © AirNav, LLC. All rights reserved. Privacy Policy  Contact